sensor_id;sensor_type;location;lat;lon;timestamp;P1;durP1;ratioP1;P2;durP2;ratioP2
25127;SDS011;13107;51.304;6.866;2023-06-14T00:03:49;11.23;;;4.30;;
25127;SDS011;13107;51.304;6.866;2023-06-14T00:07:51;6.35;;;4.28;;
25127;SDS011;13107;51.304;6.866;2023-06-14T00:11:54;6.40;;;5.15;;
25127;SDS011;13107;51.304;6.866;2023-06-14T00:15:56;6.97;;;4.75;;
25127;SDS011;13107;51.304;6.866;2023-06-14T00:19:58;9.48;;;5.28;;
25127;SDS011;13107;51.304;6.866;2023-06-14T00:24:00;6.40;;;4.75;;
25127;SDS011;13107;51.304;6.866;2023-06-14T00:28:02;9.27;;;5.35;;
25127;SDS011;13107;51.304;6.866;2023-06-14T00:32:04;4.72;;;4.15;;
25127;SDS011;13107;51.304;6.866;2023-06-14T00:36:06;7.10;;;4.85;;
25127;SDS011;13107;51.304;6.866;2023-06-14T00:40:08;8.93;;;5.47;;
25127;SDS011;13107;51.304;6.866;2023-06-14T00:44:10;6.55;;;4.87;;
25127;SDS011;13107;51.304;6.866;2023-06-14T00:48:12;10.18;;;5.35;;
25127;SDS011;13107;51.304;6.866;2023-06-14T00:52:15;9.38;;;5.03;;
25127;SDS011;13107;51.304;6.866;2023-06-14T00:56:17;8.95;;;5.65;;
25127;SDS011;13107;51.304;6.866;2023-06-14T01:00:22;8.20;;;5.50;;
25127;SDS011;13107;51.304;6.866;2023-06-14T01:04:23;6.18;;;4.97;;
25127;SDS011;13107;51.304;6.866;2023-06-14T01:08:31;6.90;;;5.10;;
25127;SDS011;13107;51.304;6.866;2023-06-14T01:12:56;9.02;;;5.80;;
25127;SDS011;13107;51.304;6.866;2023-06-14T01:17:07;9.10;;;6.35;;
25127;SDS011;13107;51.304;6.866;2023-06-14T01:21:21;6.55;;;5.22;;
25127;SDS011;13107;51.304;6.866;2023-06-14T01:25:26;6.68;;;4.90;;
25127;SDS011;13107;51.304;6.866;2023-06-14T01:29:29;9.80;;;5.87;;
25127;SDS011;13107;51.304;6.866;2023-06-14T01:33:34;8.77;;;5.72;;
25127;SDS011;13107;51.304;6.866;2023-06-14T01:37:37;11.52;;;6.20;;
25127;SDS011;13107;51.304;6.866;2023-06-14T01:41:40;10.20;;;6.18;;
25127;SDS011;13107;51.304;6.866;2023-06-14T01:45:42;8.73;;;6.37;;
25127;SDS011;13107;51.304;6.866;2023-06-14T01:49:46;7.15;;;5.15;;
25127;SDS011;13107;51.304;6.866;2023-06-14T01:53:48;7.65;;;6.10;;
25127;SDS011;13107;51.304;6.866;2023-06-14T01:57:50;8.52;;;5.65;;
25127;SDS011;13107;51.304;6.866;2023-06-14T02:01:55;10.80;;;6.22;;
25127;SDS011;13107;51.304;6.866;2023-06-14T02:05:57;11.32;;;5.87;;
25127;SDS011;13107;51.304;6.866;2023-06-14T02:09:59;8.98;;;5.93;;
25127;SDS011;13107;51.304;6.866;2023-06-14T02:14:01;8.43;;;5.65;;
25127;SDS011;13107;51.304;6.866;2023-06-14T02:18:03;5.93;;;5.32;;
25127;SDS011;13107;51.304;6.866;2023-06-14T02:22:05;7.65;;;5.82;;
25127;SDS011;13107;51.304;6.866;2023-06-14T02:26:08;8.48;;;5.60;;
25127;SDS011;13107;51.304;6.866;2023-06-14T02:30:10;7.57;;;5.87;;
25127;SDS011;13107;51.304;6.866;2023-06-14T02:34:12;10.88;;;5.82;;
25127;SDS011;13107;51.304;6.866;2023-06-14T02:38:14;9.77;;;6.15;;
25127;SDS011;13107;51.304;6.866;2023-06-14T02:42:16;6.62;;;5.78;;
25127;SDS011;13107;51.304;6.866;2023-06-14T02:46:17;9.05;;;5.68;;
25127;SDS011;13107;51.304;6.866;2023-06-14T02:50:19;7.22;;;5.70;;
25127;SDS011;13107;51.304;6.866;2023-06-14T02:54:22;7.90;;;5.75;;
25127;SDS011;13107;51.304;6.866;2023-06-14T02:58:24;8.55;;;6.07;;
25127;SDS011;13107;51.304;6.866;2023-06-14T03:02:26;10.40;;;5.85;;
25127;SDS011;13107;51.304;6.866;2023-06-14T03:06:28;9.80;;;6.37;;
25127;SDS011;13107;51.304;6.866;2023-06-14T03:10:31;8.65;;;6.18;;
25127;SDS011;13107;51.304;6.866;2023-06-14T03:14:33;7.65;;;5.97;;
25127;SDS011;13107;51.304;6.866;2023-06-14T03:18:36;9.00;;;6.47;;
25127;SDS011;13107;51.304;6.866;2023-06-14T03:22:38;9.48;;;6.03;;
25127;SDS011;13107;51.304;6.866;2023-06-14T03:26:40;6.93;;;5.72;;
25127;SDS011;13107;51.304;6.866;2023-06-14T03:30:42;8.25;;;6.12;;
25127;SDS011;13107;51.304;6.866;2023-06-14T03:34:44;7.47;;;5.70;;
25127;SDS011;13107;51.304;6.866;2023-06-14T03:38:46;6.95;;;6.20;;
25127;SDS011;13107;51.304;6.866;2023-06-14T03:42:48;11.80;;;6.40;;
25127;SDS011;13107;51.304;6.866;2023-06-14T03:46:50;9.57;;;5.65;;
25127;SDS011;13107;51.304;6.866;2023-06-14T03:50:51;6.57;;;5.65;;
25127;SDS011;13107;51.304;6.866;2023-06-14T03:54:53;7.62;;;5.55;;
25127;SDS011;13107;51.304;6.866;2023-06-14T03:58:58;8.93;;;5.68;;
25127;SDS011;13107;51.304;6.866;2023-06-14T04:02:59;13.10;;;5.85;;
25127;SDS011;13107;51.304;6.866;2023-06-14T04:07:02;8.63;;;6.00;;
25127;SDS011;13107;51.304;6.866;2023-06-14T04:11:04;12.65;;;6.32;;
25127;SDS011;13107;51.304;6.866;2023-06-14T04:15:06;9.75;;;5.87;;
25127;SDS011;13107;51.304;6.866;2023-06-14T04:19:21;9.45;;;5.35;;
25127;SDS011;13107;51.304;6.866;2023-06-14T04:23:23;9.23;;;4.93;;
25127;SDS011;13107;51.304;6.866;2023-06-14T04:27:28;8.70;;;4.80;;
25127;SDS011;13107;51.304;6.866;2023-06-14T04:31:32;7.60;;;4.40;;
25127;SDS011;13107;51.304;6.866;2023-06-14T04:35:39;7.40;;;4.50;;
25127;SDS011;13107;51.304;6.866;2023-06-14T04:39:41;11.15;;;4.62;;
25127;SDS011;13107;51.304;6.866;2023-06-14T04:43:44;10.48;;;4.57;;
25127;SDS011;13107;51.304;6.866;2023-06-14T04:47:49;8.63;;;4.30;;
25127;SDS011;13107;51.304;6.866;2023-06-14T04:51:52;5.95;;;4.32;;
25127;SDS011;13107;51.304;6.866;2023-06-14T04:55:58;7.97;;;5.05;;
25127;SDS011;13107;51.304;6.866;2023-06-14T05:00:02;6.90;;;4.53;;
25127;SDS011;13107;51.304;6.866;2023-06-14T05:04:05;6.80;;;4.57;;
25127;SDS011;13107;51.304;6.866;2023-06-14T05:08:07;9.00;;;6.57;;
25127;SDS011;13107;51.304;6.866;2023-06-14T05:12:10;6.72;;;4.20;;
25127;SDS011;13107;51.304;6.866;2023-06-14T05:16:12;6.80;;;4.15;;
25127;SDS011;13107;51.304;6.866;2023-06-14T05:20:14;5.18;;;3.87;;
25127;SDS011;13107;51.304;6.866;2023-06-14T05:24:16;5.85;;;4.40;;
25127;SDS011;13107;51.304;6.866;2023-06-14T05:28:21;7.80;;;4.20;;
25127;SDS011;13107;51.304;6.866;2023-06-14T05:32:23;8.93;;;4.40;;
25127;SDS011;13107;51.304;6.866;2023-06-14T05:36:25;5.65;;;3.58;;
25127;SDS011;13107;51.304;6.866;2023-06-14T05:40:29;11.02;;;7.37;;
25127;SDS011;13107;51.304;6.866;2023-06-14T05:44:30;11.02;;;3.95;;
25127;SDS011;13107;51.304;6.866;2023-06-14T05:48:32;6.05;;;3.58;;
25127;SDS011;13107;51.304;6.866;2023-06-14T05:52:34;8.32;;;3.62;;
25127;SDS011;13107;51.304;6.866;2023-06-14T05:56:37;6.12;;;3.37;;
25127;SDS011;13107;51.304;6.866;2023-06-14T06:00:39;5.37;;;3.40;;
25127;SDS011;13107;51.304;6.866;2023-06-14T06:04:41;5.70;;;3.60;;
25127;SDS011;13107;51.304;6.866;2023-06-14T06:08:43;5.80;;;3.00;;
25127;SDS011;13107;51.304;6.866;2023-06-14T06:12:44;6.37;;;3.28;;
25127;SDS011;13107;51.304;6.866;2023-06-14T06:16:48;7.72;;;4.03;;
25127;SDS011;13107;51.304;6.866;2023-06-14T06:20:50;5.25;;;3.20;;
25127;SDS011;13107;51.304;6.866;2023-06-14T06:24:52;6.68;;;2.53;;
25127;SDS011;13107;51.304;6.866;2023-06-14T06:28:54;7.62;;;2.60;;
25127;SDS011;13107;51.304;6.866;2023-06-14T06:32:56;4.93;;;2.42;;
25127;SDS011;13107;51.304;6.866;2023-06-14T06:36:58;3.22;;;2.15;;
25127;SDS011;13107;51.304;6.866;2023-06-14T06:41:00;6.53;;;3.10;;
25127;SDS011;13107;51.304;6.866;2023-06-14T06:45:02;4.87;;;2.30;;
25127;SDS011;13107;51.304;6.866;2023-06-14T06:49:04;5.10;;;2.33;;
25127;SDS011;13107;51.304;6.866;2023-06-14T06:53:06;3.65;;;2.08;;
25127;SDS011;13107;51.304;6.866;2023-06-14T06:57:08;5.82;;;2.08;;
25127;SDS011;13107;51.304;6.866;2023-06-14T07:01:12;6.12;;;2.60;;
25127;SDS011;13107;51.304;6.866;2023-06-14T07:05:14;4.45;;;2.40;;
25127;SDS011;13107;51.304;6.866;2023-06-14T07:09:16;2.50;;;2.12;;
25127;SDS011;13107;51.304;6.866;2023-06-14T07:13:18;6.72;;;2.50;;
25127;SDS011;13107;51.304;6.866;2023-06-14T07:17:20;4.28;;;1.80;;
25127;SDS011;13107;51.304;6.866;2023-06-14T07:21:22;7.28;;;2.08;;
25127;SDS011;13107;51.304;6.866;2023-06-14T07:25:24;6.20;;;1.92;;
25127;SDS011;13107;51.304;6.866;2023-06-14T07:29:26;2.95;;;1.70;;
25127;SDS011;13107;51.304;6.866;2023-06-14T07:33:28;7.62;;;1.67;;
25127;SDS011;13107;51.304;6.866;2023-06-14T07:37:30;3.75;;;1.50;;
25127;SDS011;13107;51.304;6.866;2023-06-14T07:41:32;2.97;;;1.40;;
25127;SDS011;13107;51.304;6.866;2023-06-14T07:45:34;2.97;;;1.37;;
25127;SDS011;13107;51.304;6.866;2023-06-14T07:49:37;4.18;;;1.40;;
25127;SDS011;13107;51.304;6.866;2023-06-14T07:53:39;3.12;;;1.55;;
25127;SDS011;13107;51.304;6.866;2023-06-14T07:57:42;4.43;;;1.40;;
25127;SDS011;13107;51.304;6.866;2023-06-14T08:01:45;4.22;;;1.20;;
25127;SDS011;13107;51.304;6.866;2023-06-14T08:05:49;2.97;;;1.37;;
25127;SDS011;13107;51.304;6.866;2023-06-14T08:09:51;3.90;;;1.48;;
25127;SDS011;13107;51.304;6.866;2023-06-14T08:13:53;2.08;;;1.48;;
25127;SDS011;13107;51.304;6.866;2023-06-14T08:17:55;3.62;;;1.60;;
25127;SDS011;13107;51.304;6.866;2023-06-14T08:21:57;1.67;;;1.35;;
25127;SDS011;13107;51.304;6.866;2023-06-14T08:25:59;4.57;;;1.55;;
25127;SDS011;13107;51.304;6.866;2023-06-14T08:30:03;3.20;;;1.50;;
25127;SDS011;13107;51.304;6.866;2023-06-14T08:34:05;2.50;;;1.60;;
25127;SDS011;13107;51.304;6.866;2023-06-14T08:38:07;4.85;;;1.60;;
25127;SDS011;13107;51.304;6.866;2023-06-14T08:42:12;5.03;;;1.65;;
25127;SDS011;13107;51.304;6.866;2023-06-14T08:46:32;3.65;;;1.70;;
25127;SDS011;13107;51.304;6.866;2023-06-14T08:50:35;2.87;;;1.67;;
25127;SDS011;13107;51.304;6.866;2023-06-14T08:54:41;2.08;;;1.33;;
25127;SDS011;13107;51.304;6.866;2023-06-14T08:58:45;3.25;;;1.67;;
25127;SDS011;13107;51.304;6.866;2023-06-14T09:02:49;2.40;;;1.40;;
25127;SDS011;13107;51.304;6.866;2023-06-14T09:06:54;4.55;;;1.40;;
25127;SDS011;13107;51.304;6.866;2023-06-14T09:10:56;3.80;;;1.20;;
25127;SDS011;13107;51.304;6.866;2023-06-14T09:14:58;4.65;;;1.40;;
25127;SDS011;13107;51.304;6.866;2023-06-14T09:19:01;2.97;;;1.33;;
25127;SDS011;13107;51.304;6.866;2023-06-14T09:23:03;2.28;;;1.33;;
25127;SDS011;13107;51.304;6.866;2023-06-14T09:27:06;3.80;;;1.35;;
25127;SDS011;13107;51.304;6.866;2023-06-14T09:31:16;6.18;;;1.50;;
25127;SDS011;13107;51.304;6.866;2023-06-14T09:35:20;7.57;;;2.08;;
25127;SDS011;13107;51.304;6.866;2023-06-14T09:39:22;5.18;;;1.80;;
25127;SDS011;13107;51.304;6.866;2023-06-14T09:43:23;5.47;;;1.55;;
25127;SDS011;13107;51.304;6.866;2023-06-14T09:47:27;6.20;;;1.45;;
25127;SDS011;13107;51.304;6.866;2023-06-14T09:51:29;4.43;;;1.40;;
25127;SDS011;13107;51.304;6.866;2023-06-14T09:55:34;3.42;;;1.42;;
25127;SDS011;13107;51.304;6.866;2023-06-14T09:59:40;4.15;;;1.27;;
25127;SDS011;13107;51.304;6.866;2023-06-14T10:03:46;3.35;;;1.30;;
25127;SDS011;13107;51.304;6.866;2023-06-14T10:08:02;3.87;;;1.50;;
25127;SDS011;13107;51.304;6.866;2023-06-14T10:12:06;2.90;;;1.20;;
25127;SDS011;13107;51.304;6.866;2023-06-14T10:16:23;6.72;;;1.45;;
25127;SDS011;13107;51.304;6.866;2023-06-14T10:20:32;4.00;;;1.42;;
25127;SDS011;13107;51.304;6.866;2023-06-14T10:24:42;4.85;;;1.73;;
25127;SDS011;13107;51.304;6.866;2023-06-14T10:28:55;1.80;;;1.10;;
25127;SDS011;13107;51.304;6.866;2023-06-14T10:33:07;3.03;;;1.27;;
25127;SDS011;13107;51.304;6.866;2023-06-14T10:37:12;2.62;;;1.17;;
25127;SDS011;13107;51.304;6.866;2023-06-14T10:41:15;2.05;;;1.00;;
25127;SDS011;13107;51.304;6.866;2023-06-14T10:45:18;3.30;;;0.82;;
25127;SDS011;13107;51.304;6.866;2023-06-14T10:49:20;6.00;;;1.15;;
25127;SDS011;13107;51.304;6.866;2023-06-14T10:53:49;3.28;;;0.90;;
25127;SDS011;13107;51.304;6.866;2023-06-14T10:57:52;3.17;;;1.45;;
25127;SDS011;13107;51.304;6.866;2023-06-14T11:06:41;2.15;;;1.15;;
25127;SDS011;13107;51.304;6.866;2023-06-14T11:10:50;3.15;;;1.10;;
25127;SDS011;13107;51.304;6.866;2023-06-14T11:14:55;5.50;;;3.08;;
25127;SDS011;13107;51.304;6.866;2023-06-14T11:18:56;2.55;;;1.10;;
25127;SDS011;13107;51.304;6.866;2023-06-14T11:22:58;3.30;;;1.25;;
25127;SDS011;13107;51.304;6.866;2023-06-14T11:27:01;2.42;;;1.10;;
25127;SDS011;13107;51.304;6.866;2023-06-14T11:31:04;5.35;;;1.17;;
25127;SDS011;13107;51.304;6.866;2023-06-14T11:35:06;4.00;;;0.90;;
25127;SDS011;13107;51.304;6.866;2023-06-14T11:39:09;2.75;;;1.00;;
25127;SDS011;13107;51.304;6.866;2023-06-14T11:43:11;3.83;;;0.90;;
25127;SDS011;13107;51.304;6.866;2023-06-14T11:47:14;3.00;;;0.93;;
25127;SDS011;13107;51.304;6.866;2023-06-14T11:51:16;3.12;;;1.00;;
25127;SDS011;13107;51.304;6.866;2023-06-14T11:55:19;1.25;;;1.08;;
25127;SDS011;13107;51.304;6.866;2023-06-14T11:59:21;4.53;;;1.50;;
25127;SDS011;13107;51.304;6.866;2023-06-14T12:03:24;2.10;;;1.00;;
25127;SDS011;13107;51.304;6.866;2023-06-14T12:07:26;1.45;;;0.90;;
25127;SDS011;13107;51.304;6.866;2023-06-14T12:11:33;4.00;;;0.90;;
25127;SDS011;13107;51.304;6.866;2023-06-14T12:15:36;2.92;;;0.93;;
25127;SDS011;13107;51.304;6.866;2023-06-14T12:19:42;5.00;;;0.98;;
25127;SDS011;13107;51.304;6.866;2023-06-14T12:23:45;3.40;;;1.03;;
25127;SDS011;13107;51.304;6.866;2023-06-14T12:27:48;5.15;;;1.20;;
25127;SDS011;13107;51.304;6.866;2023-06-14T12:31:50;1.48;;;0.70;;
25127;SDS011;13107;51.304;6.866;2023-06-14T12:35:54;4.05;;;0.73;;
25127;SDS011;13107;51.304;6.866;2023-06-14T12:39:58;3.03;;;0.95;;
25127;SDS011;13107;51.304;6.866;2023-06-14T12:44:01;2.50;;;1.00;;
25127;SDS011;13107;51.304;6.866;2023-06-14T12:48:05;4.90;;;1.23;;
25127;SDS011;13107;51.304;6.866;2023-06-14T12:52:07;4.07;;;1.20;;
25127;SDS011;13107;51.304;6.866;2023-06-14T12:56:09;1.42;;;0.90;;
25127;SDS011;13107;51.304;6.866;2023-06-14T13:00:11;3.55;;;1.17;;
25127;SDS011;13107;51.304;6.866;2023-06-14T13:04:14;3.87;;;2.12;;
25127;SDS011;13107;51.304;6.866;2023-06-14T13:08:16;1.75;;;1.33;;
25127;SDS011;13107;51.304;6.866;2023-06-14T13:12:18;4.50;;;1.20;;
25127;SDS011;13107;51.304;6.866;2023-06-14T13:16:21;4.50;;;1.10;;
25127;SDS011;13107;51.304;6.866;2023-06-14T13:20:23;3.42;;;1.60;;
25127;SDS011;13107;51.304;6.866;2023-06-14T13:24:25;4.53;;;1.20;;
25127;SDS011;13107;51.304;6.866;2023-06-14T13:28:27;2.17;;;1.35;;
25127;SDS011;13107;51.304;6.866;2023-06-14T13:32:28;6.28;;;1.37;;
25127;SDS011;13107;51.304;6.866;2023-06-14T13:36:30;4.95;;;1.50;;
25127;SDS011;13107;51.304;6.866;2023-06-14T13:40:32;2.58;;;1.87;;
25127;SDS011;13107;51.304;6.866;2023-06-14T13:44:34;2.47;;;1.27;;
25127;SDS011;13107;51.304;6.866;2023-06-14T13:48:36;3.70;;;1.77;;
25127;SDS011;13107;51.304;6.866;2023-06-14T13:52:37;9.20;;;6.35;;
25127;SDS011;13107;51.304;6.866;2023-06-14T13:56:39;6.00;;;1.40;;
25127;SDS011;13107;51.304;6.866;2023-06-14T14:00:41;10.55;;;7.25;;
25127;SDS011;13107;51.304;6.866;2023-06-14T14:04:43;4.82;;;1.30;;
25127;SDS011;13107;51.304;6.866;2023-06-14T14:08:45;4.60;;;2.85;;
25127;SDS011;13107;51.304;6.866;2023-06-14T14:12:47;3.83;;;1.30;;
25127;SDS011;13107;51.304;6.866;2023-06-14T14:16:50;7.68;;;1.45;;
25127;SDS011;13107;51.304;6.866;2023-06-14T14:20:55;4.72;;;1.30;;
25127;SDS011;13107;51.304;6.866;2023-06-14T14:24:57;6.12;;;1.77;;
25127;SDS011;13107;51.304;6.866;2023-06-14T14:28:59;5.45;;;1.92;;
25127;SDS011;13107;51.304;6.866;2023-06-14T14:33:01;5.62;;;1.70;;
25127;SDS011;13107;51.304;6.866;2023-06-14T14:37:03;2.75;;;1.40;;
25127;SDS011;13107;51.304;6.866;2023-06-14T14:41:05;7.22;;;6.35;;
25127;SDS011;13107;51.304;6.866;2023-06-14T14:45:07;4.72;;;2.30;;
25127;SDS011;13107;51.304;6.866;2023-06-14T14:49:09;2.90;;;1.45;;
25127;SDS011;13107;51.304;6.866;2023-06-14T14:53:10;4.12;;;1.60;;
25127;SDS011;13107;51.304;6.866;2023-06-14T14:57:12;9.48;;;1.50;;
25127;SDS011;13107;51.304;6.866;2023-06-14T15:01:14;3.90;;;1.50;;
25127;SDS011;13107;51.304;6.866;2023-06-14T15:05:17;4.82;;;1.70;;
25127;SDS011;13107;51.304;6.866;2023-06-14T15:09:19;2.85;;;1.40;;
25127;SDS011;13107;51.304;6.866;2023-06-14T15:13:20;5.32;;;1.58;;
25127;SDS011;13107;51.304;6.866;2023-06-14T15:17:24;5.65;;;2.53;;
25127;SDS011;13107;51.304;6.866;2023-06-14T15:21:26;8.60;;;1.70;;
25127;SDS011;13107;51.304;6.866;2023-06-14T15:25:28;4.85;;;1.60;;
25127;SDS011;13107;51.304;6.866;2023-06-14T15:29:30;3.33;;;1.83;;
25127;SDS011;13107;51.304;6.866;2023-06-14T15:33:33;6.40;;;1.73;;
25127;SDS011;13107;51.304;6.866;2023-06-14T15:37:34;4.40;;;1.65;;
25127;SDS011;13107;51.304;6.866;2023-06-14T15:41:36;9.88;;;3.33;;
25127;SDS011;13107;51.304;6.866;2023-06-14T15:45:38;7.15;;;2.00;;
25127;SDS011;13107;51.304;6.866;2023-06-14T15:49:40;4.80;;;1.70;;
25127;SDS011;13107;51.304;6.866;2023-06-14T15:53:42;4.68;;;1.80;;
25127;SDS011;13107;51.304;6.866;2023-06-14T15:57:44;4.00;;;1.90;;
25127;SDS011;13107;51.304;6.866;2023-06-14T16:01:45;9.57;;;4.18;;
25127;SDS011;13107;51.304;6.866;2023-06-14T16:05:49;3.97;;;2.30;;
25127;SDS011;13107;51.304;6.866;2023-06-14T16:09:51;4.40;;;2.03;;
25127;SDS011;13107;51.304;6.866;2023-06-14T16:13:53;6.12;;;2.95;;
25127;SDS011;13107;51.304;6.866;2023-06-14T16:17:56;2.42;;;1.85;;
25127;SDS011;13107;51.304;6.866;2023-06-14T16:21:59;15.02;;;6.15;;
25127;SDS011;13107;51.304;6.866;2023-06-14T16:26:01;2.80;;;1.90;;
25127;SDS011;13107;51.304;6.866;2023-06-14T16:30:03;8.00;;;2.30;;
25127;SDS011;13107;51.304;6.866;2023-06-14T16:34:05;10.60;;;6.85;;
25127;SDS011;13107;51.304;6.866;2023-06-14T16:38:12;22.55;;;16.02;;
25127;SDS011;13107;51.304;6.866;2023-06-14T16:42:14;5.65;;;2.55;;
25127;SDS011;13107;51.304;6.866;2023-06-14T16:46:26;4.37;;;3.87;;
25127;SDS011;13107;51.304;6.866;2023-06-14T16:50:31;6.82;;;4.28;;
25127;SDS011;13107;51.304;6.866;2023-06-14T16:54:37;5.82;;;2.10;;
25127;SDS011;13107;51.304;6.866;2023-06-14T16:58:39;4.72;;;1.95;;
25127;SDS011;13107;51.304;6.866;2023-06-14T17:02:41;8.38;;;4.90;;
25127;SDS011;13107;51.304;6.866;2023-06-14T17:06:44;4.87;;;2.80;;
25127;SDS011;13107;51.304;6.866;2023-06-14T17:10:46;5.65;;;2.12;;
25127;SDS011;13107;51.304;6.866;2023-06-14T17:14:48;7.28;;;1.75;;
25127;SDS011;13107;51.304;6.866;2023-06-14T17:18:53;4.62;;;2.30;;
25127;SDS011;13107;51.304;6.866;2023-06-14T17:22:55;3.15;;;1.83;;
25127;SDS011;13107;51.304;6.866;2023-06-14T17:26:57;4.40;;;2.00;;
25127;SDS011;13107;51.304;6.866;2023-06-14T17:30:59;6.78;;;5.25;;
25127;SDS011;13107;51.304;6.866;2023-06-14T17:35:02;2.70;;;2.12;;
25127;SDS011;13107;51.304;6.866;2023-06-14T17:39:05;6.43;;;5.78;;
25127;SDS011;13107;51.304;6.866;2023-06-14T17:43:07;5.82;;;2.20;;
25127;SDS011;13107;51.304;6.866;2023-06-14T17:47:08;5.82;;;2.08;;
25127;SDS011;13107;51.304;6.866;2023-06-14T17:51:18;7.28;;;2.08;;
25127;SDS011;13107;51.304;6.866;2023-06-14T17:55:21;6.97;;;3.58;;
25127;SDS011;13107;51.304;6.866;2023-06-14T17:59:23;1.83;;;1.62;;
25127;SDS011;13107;51.304;6.866;2023-06-14T18:03:25;2.65;;;1.90;;
25127;SDS011;13107;51.304;6.866;2023-06-14T18:07:27;4.80;;;1.90;;
25127;SDS011;13107;51.304;6.866;2023-06-14T18:11:30;5.07;;;2.25;;
25127;SDS011;13107;51.304;6.866;2023-06-14T18:15:34;3.30;;;1.90;;
25127;SDS011;13107;51.304;6.866;2023-06-14T18:19:36;5.35;;;4.10;;
25127;SDS011;13107;51.304;6.866;2023-06-14T18:23:38;5.78;;;2.00;;
25127;SDS011;13107;51.304;6.866;2023-06-14T18:27:40;6.22;;;1.80;;
25127;SDS011;13107;51.304;6.866;2023-06-14T18:31:42;8.05;;;1.90;;
25127;SDS011;13107;51.304;6.866;2023-06-14T18:35:44;3.55;;;1.55;;
25127;SDS011;13107;51.304;6.866;2023-06-14T18:39:47;5.45;;;1.70;;
25127;SDS011;13107;51.304;6.866;2023-06-14T18:43:49;3.47;;;1.55;;
25127;SDS011;13107;51.304;6.866;2023-06-14T18:47:51;3.47;;;1.52;;
25127;SDS011;13107;51.304;6.866;2023-06-14T18:51:53;3.37;;;2.42;;
25127;SDS011;13107;51.304;6.866;2023-06-14T18:55:55;2.17;;;1.30;;
25127;SDS011;13107;51.304;6.866;2023-06-14T19:00:02;10.23;;;1.70;;
25127;SDS011;13107;51.304;6.866;2023-06-14T19:04:06;6.10;;;1.90;;
25127;SDS011;13107;51.304;6.866;2023-06-14T19:08:08;4.72;;;2.33;;
25127;SDS011;13107;51.304;6.866;2023-06-14T19:12:11;5.18;;;1.90;;
25127;SDS011;13107;51.304;6.866;2023-06-14T19:16:13;17.42;;;2.30;;
25127;SDS011;13107;51.304;6.866;2023-06-14T19:20:15;7.72;;;1.75;;
25127;SDS011;13107;51.304;6.866;2023-06-14T19:24:17;2.80;;;1.80;;
25127;SDS011;13107;51.304;6.866;2023-06-14T19:28:20;2.60;;;1.42;;
25127;SDS011;13107;51.304;6.866;2023-06-14T19:32:27;2.90;;;1.80;;
25127;SDS011;13107;51.304;6.866;2023-06-14T19:36:29;5.57;;;1.70;;
25127;SDS011;13107;51.304;6.866;2023-06-14T19:40:31;3.15;;;1.62;;
25127;SDS011;13107;51.304;6.866;2023-06-14T19:44:33;3.08;;;1.83;;
25127;SDS011;13107;51.304;6.866;2023-06-14T19:48:35;2.12;;;1.65;;
25127;SDS011;13107;51.304;6.866;2023-06-14T19:52:37;3.10;;;1.48;;
25127;SDS011;13107;51.304;6.866;2023-06-14T19:56:39;3.00;;;1.55;;
25127;SDS011;13107;51.304;6.866;2023-06-14T20:00:41;3.20;;;1.50;;
25127;SDS011;13107;51.304;6.866;2023-06-14T20:04:43;4.07;;;1.55;;
25127;SDS011;13107;51.304;6.866;2023-06-14T20:08:45;3.53;;;1.62;;
25127;SDS011;13107;51.304;6.866;2023-06-14T20:12:48;4.10;;;1.30;;
25127;SDS011;13107;51.304;6.866;2023-06-14T20:16:50;3.12;;;1.40;;
25127;SDS011;13107;51.304;6.866;2023-06-14T20:20:53;3.28;;;1.67;;
25127;SDS011;13107;51.304;6.866;2023-06-14T20:24:56;2.95;;;1.90;;
25127;SDS011;13107;51.304;6.866;2023-06-14T20:28:58;2.03;;;1.70;;
25127;SDS011;13107;51.304;6.866;2023-06-14T20:32:59;4.30;;;1.50;;
25127;SDS011;13107;51.304;6.866;2023-06-14T20:37:02;2.83;;;1.50;;
25127;SDS011;13107;51.304;6.866;2023-06-14T20:41:04;3.60;;;1.80;;
25127;SDS011;13107;51.304;6.866;2023-06-14T20:45:06;2.50;;;1.40;;
25127;SDS011;13107;51.304;6.866;2023-06-14T20:49:09;2.40;;;1.50;;
25127;SDS011;13107;51.304;6.866;2023-06-14T20:53:11;3.40;;;1.42;;
25127;SDS011;13107;51.304;6.866;2023-06-14T20:57:13;2.60;;;1.60;;
25127;SDS011;13107;51.304;6.866;2023-06-14T21:01:19;1.90;;;1.70;;
25127;SDS011;13107;51.304;6.866;2023-06-14T21:05:34;4.78;;;1.77;;
25127;SDS011;13107;51.304;6.866;2023-06-14T21:09:36;4.75;;;1.58;;
25127;SDS011;13107;51.304;6.866;2023-06-14T21:13:38;3.15;;;1.85;;
25127;SDS011;13107;51.304;6.866;2023-06-14T21:17:40;2.47;;;1.67;;
25127;SDS011;13107;51.304;6.866;2023-06-14T21:21:42;2.85;;;1.65;;
25127;SDS011;13107;51.304;6.866;2023-06-14T21:25:44;7.25;;;2.17;;
25127;SDS011;13107;51.304;6.866;2023-06-14T21:29:46;4.75;;;1.70;;
25127;SDS011;13107;51.304;6.866;2023-06-14T21:33:50;5.93;;;1.70;;
25127;SDS011;13107;51.304;6.866;2023-06-14T21:37:53;2.90;;;1.90;;
25127;SDS011;13107;51.304;6.866;2023-06-14T21:41:55;2.70;;;1.70;;
25127;SDS011;13107;51.304;6.866;2023-06-14T21:45:57;5.12;;;1.90;;
25127;SDS011;13107;51.304;6.866;2023-06-14T21:49:59;3.22;;;2.20;;
25127;SDS011;13107;51.304;6.866;2023-06-14T21:54:01;4.12;;;2.22;;
25127;SDS011;13107;51.304;6.866;2023-06-14T21:58:03;2.17;;;1.65;;
25127;SDS011;13107;51.304;6.866;2023-06-14T22:02:05;3.30;;;2.20;;
25127;SDS011;13107;51.304;6.866;2023-06-14T22:06:07;4.20;;;2.10;;
25127;SDS011;13107;51.304;6.866;2023-06-14T22:10:10;3.28;;;2.12;;
25127;SDS011;13107;51.304;6.866;2023-06-14T22:14:12;4.95;;;2.03;;
25127;SDS011;13107;51.304;6.866;2023-06-14T22:18:14;4.75;;;2.30;;
25127;SDS011;13107;51.304;6.866;2023-06-14T22:22:18;5.32;;;1.90;;
25127;SDS011;13107;51.304;6.866;2023-06-14T22:26:29;2.53;;;1.90;;
25127;SDS011;13107;51.304;6.866;2023-06-14T22:30:41;2.87;;;1.90;;
25127;SDS011;13107;51.304;6.866;2023-06-14T22:34:45;5.72;;;2.17;;
25127;SDS011;13107;51.304;6.866;2023-06-14T22:38:47;5.43;;;2.12;;
25127;SDS011;13107;51.304;6.866;2023-06-14T22:42:49;2.20;;;1.70;;
25127;SDS011;13107;51.304;6.866;2023-06-14T22:46:54;5.28;;;2.20;;
25127;SDS011;13107;51.304;6.866;2023-06-14T22:50:57;6.57;;;2.00;;
25127;SDS011;13107;51.304;6.866;2023-06-14T22:55:02;5.60;;;2.83;;
25127;SDS011;13107;51.304;6.866;2023-06-14T22:59:04;4.55;;;2.00;;
25127;SDS011;13107;51.304;6.866;2023-06-14T23:03:06;2.35;;;2.10;;
25127;SDS011;13107;51.304;6.866;2023-06-14T23:07:08;4.60;;;2.05;;
25127;SDS011;13107;51.304;6.866;2023-06-14T23:11:11;2.80;;;1.70;;
25127;SDS011;13107;51.304;6.866;2023-06-14T23:19:20;6.95;;;2.30;;
25127;SDS011;13107;51.304;6.866;2023-06-14T23:23:24;3.40;;;1.83;;
25127;SDS011;13107;51.304;6.866;2023-06-14T23:27:28;4.87;;;2.03;;
25127;SDS011;13107;51.304;6.866;2023-06-14T23:31:31;2.40;;;2.00;;
25127;SDS011;13107;51.304;6.866;2023-06-14T23:35:35;7.45;;;2.35;;
25127;SDS011;13107;51.304;6.866;2023-06-14T23:39:37;2.95;;;2.12;;
25127;SDS011;13107;51.304;6.866;2023-06-14T23:43:49;2.33;;;1.90;;
25127;SDS011;13107;51.304;6.866;2023-06-14T23:47:52;3.55;;;2.17;;
25127;SDS011;13107;51.304;6.866;2023-06-14T23:51:54;4.03;;;2.17;;
25127;SDS011;13107;51.304;6.866;2023-06-14T23:55:59;5.45;;;2.25;;
